Garland's Hourly Summary for Tuesday, July 10, 2018
Hour Temp
(f)
RH
(%)
Solar Rad.
(MJ/m2)
Rainfall
(in)
Wind
(mph)
7/10/2018 12:00 AM 77 72 0 0 3.2
7/10/2018 1:00 AM 76 78 0 0 4.41
7/10/2018 2:00 AM 75 80 0 0 3.84
7/10/2018 3:00 AM 74 84 0 0 3.59
7/10/2018 4:00 AM 74 90 0 0 1.99
7/10/2018 5:00 AM 74 89 0 0 1.45
7/10/2018 6:00 AM 73 89 0 0 1.86
7/10/2018 7:00 AM 73 88 0.02 0 1.95
7/10/2018 8:00 AM 74 82 0.19 0 2.3
7/10/2018 9:00 AM 75 76 0.47 0 3.44
7/10/2018 10:00 AM 79 63 1.64 0 3.6
7/10/2018 11:00 AM 82 56 2.39 0 3.13
7/10/2018 12:00 PM 85 48 2.82 0 3.83
7/10/2018 1:00 PM 87 43 1.93 0 2.47
7/10/2018 2:00 PM 88 41 1.61 0 2.97
7/10/2018 3:00 PM 90 39 2.76 0 4.75
7/10/2018 4:00 PM 89 41 1.02 0 5.27
7/10/2018 5:00 PM 78 60 0.21 0 7.05
7/10/2018 6:00 PM 78 61 0.29 0 2.7
7/10/2018 7:00 PM 81 57 0.32 0 3.44
7/10/2018 8:00 PM 81 59 0.18 0 3.71
7/10/2018 9:00 PM 80 61 0.02 0 3.52
7/10/2018 10:00 PM 79 63 0 0 2.61
7/10/2018 11:00 PM 79 69 0 0 0.59
Data Summary 79 66 15.87 0.00 3.24